sensor_id;sensor_type;location;lat;lon;timestamp;P1;durP1;ratioP1;P2;durP2;ratioP2
59653;SDS011;66556;52.008;5.432;2023-01-01T00:00:30;20.2;;;7.8;;
59653;SDS011;66556;52.008;5.432;2023-01-01T00:02:07;20.0;;;8.4;;
59653;SDS011;66556;52.008;5.432;2023-01-01T00:05:25;20.11;;;7.9;;
59653;SDS011;66556;52.008;5.432;2023-01-01T00:07:01;21.7;;;9.31;;
59653;SDS011;66556;52.008;5.432;2023-01-01T00:08:38;18.41;;;9.31;;
59653;SDS011;66556;52.008;5.432;2023-01-01T00:10:15;22.8;;;10.21;;
59653;SDS011;66556;52.008;5.432;2023-01-01T00:13:27;20.5;;;9.4;;
59653;SDS011;66556;52.008;5.432;2023-01-01T00:15:05;20.3;;;10.3;;
59653;SDS011;66556;52.008;5.432;2023-01-01T00:16:43;23.8;;;10.3;;
59653;SDS011;66556;52.008;5.432;2023-01-01T00:19:57;20.2;;;9.71;;
59653;SDS011;66556;52.008;5.432;2023-01-01T00:21:34;20.7;;;10.0;;
59653;SDS011;66556;52.008;5.432;2023-01-01T00:23:10;17.5;;;9.1;;
59653;SDS011;66556;52.008;5.432;2023-01-01T00:26:23;18.3;;;9.31;;
59653;SDS011;66556;52.008;5.432;2023-01-01T00:28:00;18.61;;;8.5;;
59653;SDS011;66556;52.008;5.432;2023-01-01T00:29:36;19.91;;;8.5;;
59653;SDS011;66556;52.008;5.432;2023-01-01T00:31:13;18.2;;;8.31;;
59653;SDS011;66556;52.008;5.432;2023-01-01T00:34:27;15.8;;;8.0;;
59653;SDS011;66556;52.008;5.432;2023-01-01T00:36:05;15.7;;;7.3;;
59653;SDS011;66556;52.008;5.432;2023-01-01T00:37:44;15.8;;;7.2;;
59653;SDS011;66556;52.008;5.432;2023-01-01T00:40:57;19.41;;;7.5;;
59653;SDS011;66556;52.008;5.432;2023-01-01T00:42:33;17.7;;;7.6;;
59653;SDS011;66556;52.008;5.432;2023-01-01T00:44:09;14.9;;;7.0;;
59653;SDS011;66556;52.008;5.432;2023-01-01T00:45:45;16.7;;;6.9;;
59653;SDS011;66556;52.008;5.432;2023-01-01T00:48:58;14.1;;;6.4;;
59653;SDS011;66556;52.008;5.432;2023-01-01T00:50:35;15.6;;;6.2;;
59653;SDS011;66556;52.008;5.432;2023-01-01T00:52:12;15.4;;;5.9;;
59653;SDS011;66556;52.008;5.432;2023-01-01T00:55:24;13.7;;;5.8;;
59653;SDS011;66556;52.008;5.432;2023-01-01T00:57:00;16.2;;;6.1;;
59653;SDS011;66556;52.008;5.432;2023-01-01T00:58:36;18.11;;;6.1;;
59653;SDS011;66556;52.008;5.432;2023-01-01T01:01:50;16.2;;;5.2;;
59653;SDS011;66556;52.008;5.432;2023-01-01T01:03:26;16.61;;;5.9;;
59653;SDS011;66556;52.008;5.432;2023-01-01T01:05:04;20.7;;;5.7;;
59653;SDS011;66556;52.008;5.432;2023-01-01T01:06:42;17.61;;;5.5;;
59653;SDS011;66556;52.008;5.432;2023-01-01T01:09:56;12.7;;;4.61;;
59653;SDS011;66556;52.008;5.432;2023-01-01T01:11:32;17.41;;;4.8;;
59653;SDS011;66556;52.008;5.432;2023-01-01T01:13:08;16.5;;;4.8;;
59653;SDS011;66556;52.008;5.432;2023-01-01T01:16:22;11.9;;;4.1;;
59653;SDS011;66556;52.008;5.432;2023-01-01T01:18:01;18.41;;;4.41;;
59653;SDS011;66556;52.008;5.432;2023-01-01T01:19:37;14.3;;;4.3;;
59653;SDS011;66556;52.008;5.432;2023-01-01T01:22:52;13.4;;;3.7;;
59653;SDS011;66556;52.008;5.432;2023-01-01T01:24:28;10.4;;;3.5;;
59653;SDS011;66556;52.008;5.432;2023-01-01T01:26:05;13.6;;;3.6;;
59653;SDS011;66556;52.008;5.432;2023-01-01T01:27:45;11.4;;;3.8;;
59653;SDS011;66556;52.008;5.432;2023-01-01T01:30:58;13.7;;;3.7;;
59653;SDS011;66556;52.008;5.432;2023-01-01T01:32:35;13.0;;;3.5;;
59653;SDS011;66556;52.008;5.432;2023-01-01T01:34:11;13.7;;;3.4;;
59653;SDS011;66556;52.008;5.432;2023-01-01T01:37:25;12.2;;;3.7;;
59653;SDS011;66556;52.008;5.432;2023-01-01T01:39:02;12.6;;;3.2;;
59653;SDS011;66556;52.008;5.432;2023-01-01T01:40:41;11.0;;;3.4;;
59653;SDS011;66556;52.008;5.432;2023-01-01T01:42:18;13.8;;;3.5;;
59653;SDS011;66556;52.008;5.432;2023-01-01T01:45:35;11.2;;;2.8;;
59653;SDS011;66556;52.008;5.432;2023-01-01T01:47:13;12.9;;;3.2;;
59653;SDS011;66556;52.008;5.432;2023-01-01T01:48:52;11.6;;;3.0;;
59653;SDS011;66556;52.008;5.432;2023-01-01T01:52:13;11.2;;;3.3;;
59653;SDS011;66556;52.008;5.432;2023-01-01T01:53:50;9.71;;;3.2;;
59653;SDS011;66556;52.008;5.432;2023-01-01T01:55:35;13.1;;;3.3;;
59653;SDS011;66556;52.008;5.432;2023-01-01T01:57:14;9.31;;;3.1;;
59653;SDS011;66556;52.008;5.432;2023-01-01T02:00:27;12.3;;;3.0;;
59653;SDS011;66556;52.008;5.432;2023-01-01T02:02:05;11.4;;;3.3;;
59653;SDS011;66556;52.008;5.432;2023-01-01T02:03:54;9.5;;;3.3;;
59653;SDS011;66556;52.008;5.432;2023-01-01T02:05:34;9.6;;;3.1;;
59653;SDS011;66556;52.008;5.432;2023-01-01T02:08:50;11.1;;;3.2;;
59653;SDS011;66556;52.008;5.432;2023-01-01T02:10:27;10.8;;;3.0;;
59653;SDS011;66556;52.008;5.432;2023-01-01T02:12:04;11.0;;;3.3;;
59653;SDS011;66556;52.008;5.432;2023-01-01T02:13:41;9.6;;;3.1;;
59653;SDS011;66556;52.008;5.432;2023-01-01T02:16:59;9.4;;;3.1;;
59653;SDS011;66556;52.008;5.432;2023-01-01T02:18:49;8.6;;;2.7;;
59653;SDS011;66556;52.008;5.432;2023-01-01T02:20:36;12.2;;;2.8;;
59653;SDS011;66556;52.008;5.432;2023-01-01T02:22:22;9.81;;;2.6;;
59653;SDS011;66556;52.008;5.432;2023-01-01T02:24:12;9.21;;;2.8;;
59653;SDS011;66556;52.008;5.432;2023-01-01T02:26:52;9.9;;;2.7;;
59653;SDS011;66556;52.008;5.432;2023-01-01T02:28:38;11.5;;;2.7;;
59653;SDS011;66556;52.008;5.432;2023-01-01T02:30:26;11.4;;;3.0;;
59653;SDS011;66556;52.008;5.432;2023-01-01T02:33:47;10.6;;;2.7;;
59653;SDS011;66556;52.008;5.432;2023-01-01T02:35:28;8.6;;;2.4;;
59653;SDS011;66556;52.008;5.432;2023-01-01T02:37:10;8.9;;;2.5;;
59653;SDS011;66556;52.008;5.432;2023-01-01T02:38:51;9.31;;;2.4;;
59653;SDS011;66556;52.008;5.432;2023-01-01T02:42:11;10.8;;;2.6;;
59653;SDS011;66556;52.008;5.432;2023-01-01T02:43:48;9.5;;;2.5;;
59653;SDS011;66556;52.008;5.432;2023-01-01T02:45:26;9.6;;;2.21;;
59653;SDS011;66556;52.008;5.432;2023-01-01T02:48:46;8.71;;;2.7;;
59653;SDS011;66556;52.008;5.432;2023-01-01T02:50:24;11.9;;;2.4;;
59653;SDS011;66556;52.008;5.432;2023-01-01T02:52:04;12.6;;;2.5;;
59653;SDS011;66556;52.008;5.432;2023-01-01T02:53:48;7.7;;;2.6;;
59653;SDS011;66556;52.008;5.432;2023-01-01T02:55:36;9.21;;;2.4;;
59653;SDS011;66556;52.008;5.432;2023-01-01T02:59:14;9.5;;;2.31;;
59653;SDS011;66556;52.008;5.432;2023-01-01T03:00:57;6.9;;;2.21;;
59653;SDS011;66556;52.008;5.432;2023-01-01T03:02:47;9.31;;;2.5;;
59653;SDS011;66556;52.008;5.432;2023-01-01T03:04:53;10.0;;;2.5;;
59653;SDS011;66556;52.008;5.432;2023-01-01T06:46:01;6.5;;;1.4;;
59653;SDS011;66556;52.008;5.432;2023-01-01T06:47:51;5.11;;;1.0;;
59653;SDS011;66556;52.008;5.432;2023-01-01T06:51:05;5.8;;;1.3;;
59653;SDS011;66556;52.008;5.432;2023-01-01T06:52:45;5.11;;;1.5;;
59653;SDS011;66556;52.008;5.432;2023-01-01T06:54:21;3.6;;;1.11;;
59653;SDS011;66556;52.008;5.432;2023-01-01T06:57:35;7.4;;;1.5;;
59653;SDS011;66556;52.008;5.432;2023-01-01T06:59:10;5.5;;;1.3;;
59653;SDS011;66556;52.008;5.432;2023-01-01T07:00:46;4.0;;;1.2;;
59653;SDS011;66556;52.008;5.432;2023-01-01T07:02:23;5.5;;;1.3;;
59653;SDS011;66556;52.008;5.432;2023-01-01T07:05:38;7.0;;;1.2;;
59653;SDS011;66556;52.008;5.432;2023-01-01T07:07:14;5.7;;;1.4;;
59653;SDS011;66556;52.008;5.432;2023-01-01T07:08:50;5.11;;;1.11;;
59653;SDS011;66556;52.008;5.432;2023-01-01T07:12:03;7.1;;;1.11;;
59653;SDS011;66556;52.008;5.432;2023-01-01T07:13:40;6.1;;;1.11;;
59653;SDS011;66556;52.008;5.432;2023-01-01T07:15:16;5.7;;;1.11;;
59653;SDS011;66556;52.008;5.432;2023-01-01T07:18:29;5.7;;;1.6;;
59653;SDS011;66556;52.008;5.432;2023-01-01T07:20:05;6.6;;;1.4;;
59653;SDS011;66556;52.008;5.432;2023-01-01T07:21:42;6.3;;;1.0;;
59653;SDS011;66556;52.008;5.432;2023-01-01T07:23:20;7.3;;;1.4;;
59653;SDS011;66556;52.008;5.432;2023-01-01T07:26:32;6.2;;;1.3;;
59653;SDS011;66556;52.008;5.432;2023-01-01T07:28:08;5.9;;;1.2;;
59653;SDS011;66556;52.008;5.432;2023-01-01T07:29:45;6.2;;;1.4;;
59653;SDS011;66556;52.008;5.432;2023-01-01T07:32:57;4.5;;;1.2;;
59653;SDS011;66556;52.008;5.432;2023-01-01T07:34:32;7.5;;;1.2;;
59653;SDS011;66556;52.008;5.432;2023-01-01T07:36:08;7.0;;;1.4;;
59653;SDS011;66556;52.008;5.432;2023-01-01T07:39:21;7.2;;;1.4;;
59653;SDS011;66556;52.008;5.432;2023-01-01T07:40:57;5.7;;;1.11;;
59653;SDS011;66556;52.008;5.432;2023-01-01T07:42:33;9.9;;;1.6;;
59653;SDS011;66556;52.008;5.432;2023-01-01T07:44:10;12.0;;;1.7;;
59653;SDS011;66556;52.008;5.432;2023-01-01T07:47:23;6.5;;;1.4;;
59653;SDS011;66556;52.008;5.432;2023-01-01T07:49:00;5.6;;;1.11;;
59653;SDS011;66556;52.008;5.432;2023-01-01T07:50:36;6.0;;;1.2;;
59653;SDS011;66556;52.008;5.432;2023-01-01T07:53:48;6.1;;;1.4;;
59653;SDS011;66556;52.008;5.432;2023-01-01T07:55:25;5.7;;;1.4;;
59653;SDS011;66556;52.008;5.432;2023-01-01T07:57:02;4.91;;;1.0;;
59653;SDS011;66556;52.008;5.432;2023-01-01T08:00:16;6.1;;;1.11;;
59653;SDS011;66556;52.008;5.432;2023-01-01T08:01:55;5.2;;;1.3;;
59653;SDS011;66556;52.008;5.432;2023-01-01T08:03:30;5.3;;;1.2;;
59653;SDS011;66556;52.008;5.432;2023-01-01T08:05:07;5.4;;;1.2;;
59653;SDS011;66556;52.008;5.432;2023-01-01T08:08:19;7.9;;;1.3;;
59653;SDS011;66556;52.008;5.432;2023-01-01T08:09:56;6.8;;;1.4;;
59653;SDS011;66556;52.008;5.432;2023-01-01T08:11:32;7.0;;;1.3;;
59653;SDS011;66556;52.008;5.432;2023-01-01T08:14:44;6.3;;;1.3;;
59653;SDS011;66556;52.008;5.432;2023-01-01T08:16:21;6.4;;;1.2;;
59653;SDS011;66556;52.008;5.432;2023-01-01T08:21:10;7.3;;;1.3;;
59653;SDS011;66556;52.008;5.432;2023-01-01T08:22:47;6.5;;;1.4;;
59653;SDS011;66556;52.008;5.432;2023-01-01T08:24:23;6.2;;;1.4;;
59653;SDS011;66556;52.008;5.432;2023-01-01T08:25:59;6.8;;;1.6;;
59653;SDS011;66556;52.008;5.432;2023-01-01T08:29:13;9.4;;;1.5;;
59653;SDS011;66556;52.008;5.432;2023-01-01T08:30:49;5.9;;;1.4;;
59653;SDS011;66556;52.008;5.432;2023-01-01T08:32:25;8.9;;;1.7;;
59653;SDS011;66556;52.008;5.432;2023-01-01T08:35:39;6.1;;;1.3;;
59653;SDS011;66556;52.008;5.432;2023-01-01T08:37:17;7.6;;;1.3;;
59653;SDS011;66556;52.008;5.432;2023-01-01T08:38:56;7.4;;;1.6;;
59653;SDS011;66556;52.008;5.432;2023-01-01T08:42:09;5.6;;;1.5;;
59653;SDS011;66556;52.008;5.432;2023-01-01T08:43:45;7.1;;;1.3;;
59653;SDS011;66556;52.008;5.432;2023-01-01T08:45:21;9.21;;;1.8;;
59653;SDS011;66556;52.008;5.432;2023-01-01T08:46:58;8.31;;;1.3;;
59653;SDS011;66556;52.008;5.432;2023-01-01T08:50:10;9.21;;;1.5;;
59653;SDS011;66556;52.008;5.432;2023-01-01T08:53:22;7.2;;;1.4;;
59653;SDS011;66556;52.008;5.432;2023-01-01T08:56:35;8.31;;;1.8;;
59653;SDS011;66556;52.008;5.432;2023-01-01T08:58:11;7.4;;;1.7;;
59653;SDS011;66556;52.008;5.432;2023-01-01T08:59:48;10.0;;;1.9;;
59653;SDS011;66556;52.008;5.432;2023-01-01T09:03:02;7.2;;;1.6;;
59653;SDS011;66556;52.008;5.432;2023-01-01T09:04:38;9.31;;;1.9;;
59653;SDS011;66556;52.008;5.432;2023-01-01T09:06:14;8.1;;;1.9;;
59653;SDS011;66556;52.008;5.432;2023-01-01T09:07:50;7.9;;;1.7;;
59653;SDS011;66556;52.008;5.432;2023-01-01T09:11:04;8.2;;;1.8;;
59653;SDS011;66556;52.008;5.432;2023-01-01T09:12:41;10.9;;;2.21;;
59653;SDS011;66556;52.008;5.432;2023-01-01T09:14:17;8.31;;;1.7;;
59653;SDS011;66556;52.008;5.432;2023-01-01T09:17:31;7.1;;;1.3;;
59653;SDS011;66556;52.008;5.432;2023-01-01T09:19:07;8.4;;;2.0;;
59653;SDS011;66556;52.008;5.432;2023-01-01T09:20:44;8.1;;;1.5;;
59653;SDS011;66556;52.008;5.432;2023-01-01T09:23:56;8.81;;;1.5;;
59653;SDS011;66556;52.008;5.432;2023-01-01T09:25:32;7.0;;;1.6;;
59653;SDS011;66556;52.008;5.432;2023-01-01T09:27:09;8.31;;;1.7;;
59653;SDS011;66556;52.008;5.432;2023-01-01T09:28:45;7.4;;;1.5;;
59653;SDS011;66556;52.008;5.432;2023-01-01T09:31:58;7.9;;;1.8;;
59653;SDS011;66556;52.008;5.432;2023-01-01T09:33:34;8.0;;;1.7;;
59653;SDS011;66556;52.008;5.432;2023-01-01T09:35:11;9.5;;;1.8;;
59653;SDS011;66556;52.008;5.432;2023-01-01T09:38:23;8.81;;;1.7;;
59653;SDS011;66556;52.008;5.432;2023-01-01T09:39:59;7.4;;;1.7;;
59653;SDS011;66556;52.008;5.432;2023-01-01T09:41:40;7.7;;;1.7;;
59653;SDS011;66556;52.008;5.432;2023-01-01T09:43:41;8.31;;;2.0;;
59653;SDS011;66556;52.008;5.432;2023-01-01T09:47:14;7.2;;;1.7;;
59653;SDS011;66556;52.008;5.432;2023-01-01T09:49:00;9.21;;;1.9;;
59653;SDS011;66556;52.008;5.432;2023-01-01T09:50:46;8.5;;;1.8;;
59653;SDS011;66556;52.008;5.432;2023-01-01T09:52:22;9.1;;;2.0;;
59653;SDS011;66556;52.008;5.432;2023-01-01T09:54:05;11.1;;;2.21;;
59653;SDS011;66556;52.008;5.432;2023-01-01T09:57:31;9.81;;;2.31;;
59653;SDS011;66556;52.008;5.432;2023-01-01T09:59:07;9.4;;;2.21;;
59653;SDS011;66556;52.008;5.432;2023-01-01T10:00:45;11.6;;;2.31;;
59653;SDS011;66556;52.008;5.432;2023-01-01T10:02:31;11.6;;;2.31;;
59653;SDS011;66556;52.008;5.432;2023-01-01T10:04:28;10.8;;;2.4;;
59653;SDS011;66556;52.008;5.432;2023-01-01T10:06:23;9.4;;;2.31;;
59653;SDS011;66556;52.008;5.432;2023-01-01T10:09:54;10.21;;;2.0;;
59653;SDS011;66556;52.008;5.432;2023-01-01T10:11:41;10.1;;;1.9;;
59653;SDS011;66556;52.008;5.432;2023-01-01T10:13:27;12.6;;;2.7;;
59653;SDS011;66556;52.008;5.432;2023-01-01T10:15:12;9.0;;;2.21;;
59653;SDS011;66556;52.008;5.432;2023-01-01T10:16:54;9.81;;;2.31;;
59653;SDS011;66556;52.008;5.432;2023-01-01T10:21:57;9.81;;;2.21;;
59653;SDS011;66556;52.008;5.432;2023-01-01T10:25:22;11.4;;;2.5;;
59653;SDS011;66556;52.008;5.432;2023-01-01T10:28:42;8.5;;;2.0;;
59653;SDS011;66556;52.008;5.432;2023-01-01T10:30:28;10.8;;;2.4;;
59653;SDS011;66556;52.008;5.432;2023-01-01T10:32:11;10.4;;;2.6;;
59653;SDS011;66556;52.008;5.432;2023-01-01T10:33:54;8.81;;;2.1;;
59653;SDS011;66556;52.008;5.432;2023-01-01T10:37:10;8.2;;;2.4;;
59653;SDS011;66556;52.008;5.432;2023-01-01T10:38:48;10.21;;;2.4;;
59653;SDS011;66556;52.008;5.432;2023-01-01T10:40:26;14.1;;;3.2;;
59653;SDS011;66556;52.008;5.432;2023-01-01T10:42:05;11.6;;;2.7;;
59653;SDS011;66556;52.008;5.432;2023-01-01T10:45:17;10.4;;;2.4;;
59653;SDS011;66556;52.008;5.432;2023-01-01T10:47:03;10.7;;;2.21;;
59653;SDS011;66556;52.008;5.432;2023-01-01T10:49:03;9.5;;;2.4;;
59653;SDS011;66556;52.008;5.432;2023-01-01T10:50:43;17.7;;;3.1;;
59653;SDS011;66556;52.008;5.432;2023-01-01T10:54:04;11.8;;;2.1;;
59653;SDS011;66556;52.008;5.432;2023-01-01T10:55:40;11.4;;;2.21;;
59653;SDS011;66556;52.008;5.432;2023-01-01T10:57:17;14.9;;;2.5;;
59653;SDS011;66556;52.008;5.432;2023-01-01T10:59:31;10.6;;;2.8;;
59653;SDS011;66556;52.008;5.432;2023-01-01T11:01:10;13.9;;;2.5;;
59653;SDS011;66556;52.008;5.432;2023-01-01T11:03:04;10.8;;;2.31;;
59653;SDS011;66556;52.008;5.432;2023-01-01T11:06:51;11.3;;;2.6;;
59653;SDS011;66556;52.008;5.432;2023-01-01T11:08:27;9.5;;;1.8;;
59653;SDS011;66556;52.008;5.432;2023-01-01T11:10:05;8.4;;;1.9;;
59653;SDS011;66556;52.008;5.432;2023-01-01T11:11:53;10.6;;;2.5;;
59653;SDS011;66556;52.008;5.432;2023-01-01T11:13:32;10.21;;;2.21;;
59653;SDS011;66556;52.008;5.432;2023-01-01T11:16:57;12.1;;;2.4;;
59653;SDS011;66556;52.008;5.432;2023-01-01T11:18:34;8.5;;;2.1;;
59653;SDS011;66556;52.008;5.432;2023-01-01T11:20:15;10.3;;;2.4;;
59653;SDS011;66556;52.008;5.432;2023-01-01T11:21:54;12.5;;;1.9;;
59653;SDS011;66556;52.008;5.432;2023-01-01T11:25:19;12.7;;;2.4;;
59653;SDS011;66556;52.008;5.432;2023-01-01T11:27:11;9.5;;;2.21;;
59653;SDS011;66556;52.008;5.432;2023-01-01T11:29:01;8.4;;;2.31;;
59653;SDS011;66556;52.008;5.432;2023-01-01T11:30:40;10.7;;;2.31;;
59653;SDS011;66556;52.008;5.432;2023-01-01T11:32:33;23.9;;;3.9;;
59653;SDS011;66556;52.008;5.432;2023-01-01T11:36:02;9.5;;;2.21;;
59653;SDS011;66556;52.008;5.432;2023-01-01T11:37:41;11.0;;;2.8;;
59653;SDS011;66556;52.008;5.432;2023-01-01T11:39:21;10.5;;;3.6;;
59653;SDS011;66556;52.008;5.432;2023-01-01T11:41:01;12.5;;;3.7;;
59653;SDS011;66556;52.008;5.432;2023-01-01T11:42:42;13.6;;;3.8;;
59653;SDS011;66556;52.008;5.432;2023-01-01T11:46:09;10.9;;;3.7;;
59653;SDS011;66556;52.008;5.432;2023-01-01T11:47:52;10.9;;;3.7;;
59653;SDS011;66556;52.008;5.432;2023-01-01T11:49:32;11.0;;;3.5;;
59653;SDS011;66556;52.008;5.432;2023-01-01T11:51:10;10.0;;;2.9;;
59653;SDS011;66556;52.008;5.432;2023-01-01T11:53:26;11.6;;;3.3;;
59653;SDS011;66556;52.008;5.432;2023-01-01T11:56:57;13.0;;;3.7;;
59653;SDS011;66556;52.008;5.432;2023-01-01T11:58:44;14.2;;;4.7;;
59653;SDS011;66556;52.008;5.432;2023-01-01T12:00:27;17.61;;;5.11;;
59653;SDS011;66556;52.008;5.432;2023-01-01T12:02:09;13.7;;;4.61;;
59653;SDS011;66556;52.008;5.432;2023-01-01T12:03:51;14.8;;;3.7;;
59653;SDS011;66556;52.008;5.432;2023-01-01T12:07:20;12.5;;;3.1;;
59653;SDS011;66556;52.008;5.432;2023-01-01T12:09:04;10.6;;;2.8;;
59653;SDS011;66556;52.008;5.432;2023-01-01T12:10:48;12.5;;;3.7;;
59653;SDS011;66556;52.008;5.432;2023-01-01T12:12:30;11.6;;;3.4;;
59653;SDS011;66556;52.008;5.432;2023-01-01T12:14:12;12.9;;;3.0;;
59653;SDS011;66556;52.008;5.432;2023-01-01T12:17:42;12.2;;;3.2;;
59653;SDS011;66556;52.008;5.432;2023-01-01T12:19:22;14.1;;;4.7;;
59653;SDS011;66556;52.008;5.432;2023-01-01T12:21:05;14.5;;;3.8;;
59653;SDS011;66556;52.008;5.432;2023-01-01T12:22:48;15.4;;;3.4;;
59653;SDS011;66556;52.008;5.432;2023-01-01T12:26:11;10.21;;;3.1;;
59653;SDS011;66556;52.008;5.432;2023-01-01T12:27:57;11.2;;;2.9;;
59653;SDS011;66556;52.008;5.432;2023-01-01T12:29:55;13.2;;;2.8;;
59653;SDS011;66556;52.008;5.432;2023-01-01T12:31:47;15.3;;;3.5;;
59653;SDS011;66556;52.008;5.432;2023-01-01T12:33:38;11.7;;;3.1;;
59653;SDS011;66556;52.008;5.432;2023-01-01T12:35:52;10.6;;;3.1;;
59653;SDS011;66556;52.008;5.432;2023-01-01T12:37:42;15.2;;;3.4;;
59653;SDS011;66556;52.008;5.432;2023-01-01T12:39:41;12.1;;;3.5;;
59653;SDS011;66556;52.008;5.432;2023-01-01T12:42:33;14.4;;;3.9;;
59653;SDS011;66556;52.008;5.432;2023-01-01T12:44:22;14.5;;;3.6;;
59653;SDS011;66556;52.008;5.432;2023-01-01T12:46:13;13.8;;;3.5;;
59653;SDS011;66556;52.008;5.432;2023-01-01T12:48:15;14.7;;;3.8;;
59653;SDS011;66556;52.008;5.432;2023-01-01T12:50:31;14.1;;;3.4;;
59653;SDS011;66556;52.008;5.432;2023-01-01T12:52:20;13.7;;;3.6;;
59653;SDS011;66556;52.008;5.432;2023-01-01T12:54:17;12.6;;;3.1;;
59653;SDS011;66556;52.008;5.432;2023-01-01T12:56:22;11.9;;;3.3;;
59653;SDS011;66556;52.008;5.432;2023-01-01T12:58:09;16.3;;;3.9;;
59653;SDS011;66556;52.008;5.432;2023-01-01T13:01:29;12.4;;;3.4;;
59653;SDS011;66556;52.008;5.432;2023-01-01T13:03:09;14.8;;;3.4;;
59653;SDS011;66556;52.008;5.432;2023-01-01T13:04:55;11.4;;;3.4;;
59653;SDS011;66556;52.008;5.432;2023-01-01T13:06:39;15.4;;;3.3;;
59653;SDS011;66556;52.008;5.432;2023-01-01T13:10:00;13.2;;;3.4;;
59653;SDS011;66556;52.008;5.432;2023-01-01T13:11:54;13.0;;;3.7;;
59653;SDS011;66556;52.008;5.432;2023-01-01T13:13:35;14.2;;;3.1;;
59653;SDS011;66556;52.008;5.432;2023-01-01T13:15:44;13.8;;;3.5;;
59653;SDS011;66556;52.008;5.432;2023-01-01T13:17:25;16.2;;;3.7;;
59653;SDS011;66556;52.008;5.432;2023-01-01T13:19:04;18.3;;;3.6;;
59653;SDS011;66556;52.008;5.432;2023-01-01T13:22:36;15.2;;;3.4;;
59653;SDS011;66556;52.008;5.432;2023-01-01T13:24:18;14.7;;;3.4;;
59653;SDS011;66556;52.008;5.432;2023-01-01T13:26:29;12.8;;;3.0;;
59653;SDS011;66556;52.008;5.432;2023-01-01T13:28:10;12.9;;;3.3;;
59653;SDS011;66556;52.008;5.432;2023-01-01T13:29:48;13.4;;;3.0;;
59653;SDS011;66556;52.008;5.432;2023-01-01T13:31:33;14.6;;;3.3;;
59653;SDS011;66556;52.008;5.432;2023-01-01T13:33:37;14.8;;;3.5;;
59653;SDS011;66556;52.008;5.432;2023-01-01T13:36:51;12.6;;;3.1;;
59653;SDS011;66556;52.008;5.432;2023-01-01T13:39:49;15.2;;;3.1;;
59653;SDS011;66556;52.008;5.432;2023-01-01T13:41:28;12.4;;;2.8;;
59653;SDS011;66556;52.008;5.432;2023-01-01T13:43:15;14.7;;;3.2;;
59653;SDS011;66556;52.008;5.432;2023-01-01T13:45:11;15.6;;;3.3;;
59653;SDS011;66556;52.008;5.432;2023-01-01T13:47:01;14.7;;;3.1;;
59653;SDS011;66556;52.008;5.432;2023-01-01T13:49:13;17.8;;;3.4;;
59653;SDS011;66556;52.008;5.432;2023-01-01T13:51:01;16.11;;;3.2;;
59653;SDS011;66556;52.008;5.432;2023-01-01T13:53:12;14.8;;;3.6;;
59653;SDS011;66556;52.008;5.432;2023-01-01T13:55:54;15.4;;;3.7;;
59653;SDS011;66556;52.008;5.432;2023-01-01T13:57:50;13.8;;;3.4;;
59653;SDS011;66556;52.008;5.432;2023-01-01T14:00:13;12.4;;;2.8;;
59653;SDS011;66556;52.008;5.432;2023-01-01T14:01:56;15.5;;;3.2;;
59653;SDS011;66556;52.008;5.432;2023-01-01T14:03:48;14.3;;;3.6;;
59653;SDS011;66556;52.008;5.432;2023-01-01T14:05:30;15.7;;;3.8;;
59653;SDS011;66556;52.008;5.432;2023-01-01T14:07:14;18.91;;;3.9;;
59653;SDS011;66556;52.008;5.432;2023-01-01T14:10:40;15.9;;;4.0;;
59653;SDS011;66556;52.008;5.432;2023-01-01T14:12:25;17.3;;;3.6;;
59653;SDS011;66556;52.008;5.432;2023-01-01T14:14:01;16.8;;;3.6;;
59653;SDS011;66556;52.008;5.432;2023-01-01T14:15:37;15.8;;;3.4;;
59653;SDS011;66556;52.008;5.432;2023-01-01T14:18:52;20.0;;;3.2;;
59653;SDS011;66556;52.008;5.432;2023-01-01T14:20:34;14.0;;;3.3;;
59653;SDS011;66556;52.008;5.432;2023-01-01T14:22:16;16.8;;;3.2;;
59653;SDS011;66556;52.008;5.432;2023-01-01T14:23:53;15.1;;;3.7;;
59653;SDS011;66556;52.008;5.432;2023-01-01T14:27:12;17.61;;;3.7;;
59653;SDS011;66556;52.008;5.432;2023-01-01T14:28:54;14.8;;;3.5;;
59653;SDS011;66556;52.008;5.432;2023-01-01T14:30:32;14.1;;;3.5;;
59653;SDS011;66556;52.008;5.432;2023-01-01T14:32:12;16.9;;;3.9;;
59653;SDS011;66556;52.008;5.432;2023-01-01T14:35:27;12.6;;;3.2;;
59653;SDS011;66556;52.008;5.432;2023-01-01T14:37:05;14.1;;;3.4;;
59653;SDS011;66556;52.008;5.432;2023-01-01T14:38:57;11.0;;;3.1;;
59653;SDS011;66556;52.008;5.432;2023-01-01T14:40:35;13.1;;;3.3;;
59653;SDS011;66556;52.008;5.432;2023-01-01T14:43:52;16.11;;;3.4;;
59653;SDS011;66556;52.008;5.432;2023-01-01T14:45:33;14.8;;;3.0;;
59653;SDS011;66556;52.008;5.432;2023-01-01T14:47:15;14.2;;;3.6;;
59653;SDS011;66556;52.008;5.432;2023-01-01T14:49:02;14.2;;;3.1;;
59653;SDS011;66556;52.008;5.432;2023-01-01T14:52:25;15.0;;;3.3;;
59653;SDS011;66556;52.008;5.432;2023-01-01T14:54:04;11.8;;;3.4;;
59653;SDS011;66556;52.008;5.432;2023-01-01T14:55:40;12.4;;;3.3;;
59653;SDS011;66556;52.008;5.432;2023-01-01T14:57:21;14.8;;;3.6;;
59653;SDS011;66556;52.008;5.432;2023-01-01T15:00:50;16.8;;;4.0;;
59653;SDS011;66556;52.008;5.432;2023-01-01T15:02:28;14.6;;;3.9;;
59653;SDS011;66556;52.008;5.432;2023-01-01T15:04:14;16.0;;;3.5;;
59653;SDS011;66556;52.008;5.432;2023-01-01T15:05:57;15.0;;;4.2;;
59653;SDS011;66556;52.008;5.432;2023-01-01T15:09:12;19.2;;;6.0;;
59653;SDS011;66556;52.008;5.432;2023-01-01T15:10:51;18.41;;;6.9;;
59653;SDS011;66556;52.008;5.432;2023-01-01T15:12:32;14.8;;;4.61;;
59653;SDS011;66556;52.008;5.432;2023-01-01T15:14:26;13.4;;;4.7;;
59653;SDS011;66556;52.008;5.432;2023-01-01T15:17:58;16.3;;;4.1;;
59653;SDS011;66556;52.008;5.432;2023-01-01T15:19:34;14.6;;;4.61;;
59653;SDS011;66556;52.008;5.432;2023-01-01T15:21:13;16.5;;;4.2;;
59653;SDS011;66556;52.008;5.432;2023-01-01T15:22:52;15.6;;;4.5;;
59653;SDS011;66556;52.008;5.432;2023-01-01T15:24:30;18.3;;;4.61;;
59653;SDS011;66556;52.008;5.432;2023-01-01T15:28:01;15.1;;;4.41;;
59653;SDS011;66556;52.008;5.432;2023-01-01T15:29:39;17.11;;;4.7;;
59653;SDS011;66556;52.008;5.432;2023-01-01T15:31:20;10.9;;;3.9;;
59653;SDS011;66556;52.008;5.432;2023-01-01T15:34:42;16.61;;;4.41;;
59653;SDS011;66556;52.008;5.432;2023-01-01T15:36:24;15.0;;;3.8;;
59653;SDS011;66556;52.008;5.432;2023-01-01T15:38:00;14.1;;;3.8;;
59653;SDS011;66556;52.008;5.432;2023-01-01T15:39:46;16.9;;;5.0;;
59653;SDS011;66556;52.008;5.432;2023-01-01T15:41:32;17.0;;;4.41;;
59653;SDS011;66556;52.008;5.432;2023-01-01T15:43:18;15.6;;;4.5;;
59653;SDS011;66556;52.008;5.432;2023-01-01T15:47:03;13.3;;;4.2;;
59653;SDS011;66556;52.008;5.432;2023-01-01T15:48:47;16.0;;;4.3;;
59653;SDS011;66556;52.008;5.432;2023-01-01T15:50:26;12.8;;;4.2;;
59653;SDS011;66556;52.008;5.432;2023-01-01T15:52:13;15.6;;;4.2;;
59653;SDS011;66556;52.008;5.432;2023-01-01T15:53:56;15.6;;;4.2;;
59653;SDS011;66556;52.008;5.432;2023-01-01T15:57:18;15.2;;;4.0;;
59653;SDS011;66556;52.008;5.432;2023-01-01T15:58:59;15.3;;;3.9;;
59653;SDS011;66556;52.008;5.432;2023-01-01T16:00:37;15.7;;;4.0;;
59653;SDS011;66556;52.008;5.432;2023-01-01T16:02:17;13.6;;;3.8;;
59653;SDS011;66556;52.008;5.432;2023-01-01T16:05:44;15.1;;;3.9;;
59653;SDS011;66556;52.008;5.432;2023-01-01T16:07:23;16.4;;;3.8;;
59653;SDS011;66556;52.008;5.432;2023-01-01T16:09:01;13.3;;;3.3;;
59653;SDS011;66556;52.008;5.432;2023-01-01T16:10:38;14.7;;;3.5;;
59653;SDS011;66556;52.008;5.432;2023-01-01T16:13:51;14.9;;;3.7;;
59653;SDS011;66556;52.008;5.432;2023-01-01T16:15:27;12.9;;;3.3;;
59653;SDS011;66556;52.008;5.432;2023-01-01T16:17:03;16.7;;;3.7;;
59653;SDS011;66556;52.008;5.432;2023-01-01T16:20:19;12.3;;;3.5;;
59653;SDS011;66556;52.008;5.432;2023-01-01T16:21:56;14.3;;;3.5;;
59653;SDS011;66556;52.008;5.432;2023-01-01T16:23:33;12.9;;;3.4;;
59653;SDS011;66556;52.008;5.432;2023-01-01T16:25:11;13.7;;;3.4;;
59653;SDS011;66556;52.008;5.432;2023-01-01T16:28:26;12.9;;;3.4;;
59653;SDS011;66556;52.008;5.432;2023-01-01T16:30:03;13.5;;;3.7;;
59653;SDS011;66556;52.008;5.432;2023-01-01T16:31:39;15.2;;;4.0;;
59653;SDS011;66556;52.008;5.432;2023-01-01T16:34:56;12.0;;;3.4;;
59653;SDS011;66556;52.008;5.432;2023-01-01T16:36:32;13.2;;;3.2;;